< < Back
Terminal Aerodrome Forecast


Current Version              Previous Versions:   1  2  3  4  5  6  7  8  9  

Terminal Aerodrome Forecast

072
FTUS42 KGSP 170500
TAFHKY
TAF
KHKY 170531Z 1706/1806 07003KT P6SM FEW250
     FM171400 05007KT P6SM SCT250
     FM172100 09008KT P6SM BKN250
     FM180100 04004KT P6SM BKN250=



Latest METAR

761
SAUS70 KWBC 171000 RRG
MTRHKY
METAR KHKY 170953Z AUTO 01003KT 10SM CLR 00/M02 A3047 RMK AO2 SLP312
T00001022


USA.gov is the U.S. government's official web portal to all federal, state and local government web resources and services.